Pagrindinis puslapis
METAR-TAF:

METAR-TAF

Oro uostai :

Tena, Ekvadoras

platuma: 01-03-35S, ilguma: 77-35-00W, Aukštis: 376 m

Dabartinis oras

Ataskaita buvo paskelbta 5 valandos ir 10 minutes, ne 23:00 UTC
Vėjas 4 kt iš Vakarų/Pietvakarių
Temperatūra 25°C
Drėgmė 89%
Slėgis 1009 hPa
Matomumas 10 km arba daugiau
Su prošvaistėmis ne aukštis 10000 ft

METAR: SEJD 162300Z 24004KT 9999 BKN100 25/23 Q1009 RMK A2980

Laikas: 23:10 (04:10 UTC)


TAF: trūkstamas

Orai ataskaitas ir orų prognozės (METAR, TAF).

turimą stotys yra geltonos ir raudonos taškus žemėlapyje.

Perkelti pele per norėdami pamatyti stoties vardą.

Tada spustelėkite, norėdami matyti oro stebėjimo ir prognozės.

Norėdami pakeisti žemėlapį: spustelėkite ant žalios mygtukų su juodo kryžiaus žemyn,; žalią mygtuką su brūkšneliu, jei norite nutolinti; arba žalių rodyklių gretimoms žemėlapius.


METAR-TAF: